Tokuyo Maru No.17 — JD4156 — position and weather

sailwx.info

Track history (hours):
 
Tides and Currents Weather Stations Pressure Air Temp Water Temp Dewpoint Dewpoint Depression Visibility Wind Speed Wind Dir Waves Ship Positions

Tokuyo Maru No.17

Last reported at 2017-Oct-20 12:31 UTC. Time now 2017-Oct-20 12:42 UTC.
Position N 34°31' E 135°20'.

Length 67 m; draft 4.7 m.

Type: Tanker. MMSI: 431009496.

Date/timePositionNaut miles runAvg speedWind from/ knotsBaromVisibWave heightAir tempDewpointWater temp
2017-Oct-20 12:31N 34°31' E 135°20'0 0.0
2017-Oct-20 12:00N 34°31' E 135°20'0 0.0
2017-Oct-20 11:31N 34°31' E 135°20'0 0.0
2017-Oct-20 11:00N 34°31' E 135°20'0 0.1
2017-Oct-20 10:29N 34°31' E 135°20'4 8.1
2017-Oct-20 09:59N 34°33' E 135°25'0 0.2
2017-Oct-20 09:18N 34°32' E 135°25'0 0.0
2017-Oct-20 07:57N 34°32' E 135°25'0 0.0
2017-Oct-20 07:29N 34°32' E 135°25'0 0.0
2017-Oct-20 07:00N 34°32' E 135°25'0 0.0
2017-Oct-20 06:31N 34°32' E 135°25'0 0.0
2017-Oct-20 04:48N 34°32' E 135°25'1 3.6
2017-Oct-20 04:30N 34°33' E 135°25'611.6
2017-Oct-20 04:00N 34°31' E 135°18'612.0
2017-Oct-20 03:30N 34°27' E 135°12'811.6
2017-Oct-20 02:51N 34°22' E 135°05'810.9
2017-Oct-20 02:06N 34°16' E 134°59'112.2
2017-Oct-20 02:00N 34°15' E 134°59'612.5
2017-Oct-20 01:30N 34°09' E 134°60'  
2017-Oct-15 08:15N 34°36' E 134°55'514.8
2017-Oct-15 07:54N 34°37' E 135°01'614.4
2017-Oct-15 07:30N 34°35' E 135°08'713.2
2017-Oct-15 07:00N 34°34' E 135°16'713.2
2017-Oct-15 06:29N 34°33' E 135°24'2 0.9
2017-Oct-15 04:44N 34°32' E 135°25'0 1.1
2017-Oct-15 04:29N 34°33' E 135°25'1 1.7
2017-Oct-15 04:00N 34°33' E 135°25'2 3.6
2017-Oct-15 03:24N 34°33' E 135°22'0 0.0
2017-Oct-15 03:00N 34°33' E 135°22'0 0.0
2017-Oct-15 02:21N 34°33' E 135°22'0 0.0
2017-Oct-15 01:57N 34°33' E 135°22'0 0.1
2017-Oct-15 01:30N 34°33' E 135°22'0 0.0
2017-Oct-15 00:13N 34°33' E 135°22'0 0.0
2017-Oct-14 23:56N 34°33' E 135°22'0 0.0
2017-Oct-14 23:30N 34°33' E 135°22'0 0.0
2017-Oct-14 23:00N 34°33' E 135°22'0 0.0
2017-Oct-14 22:30N 34°33' E 135°22'0 0.0
2017-Oct-14 22:00N 34°33' E 135°22'510.2
2017-Oct-14 21:30N 34°30' E 135°17'510.1
2017-Oct-14 21:00N 34°27' E 135°12'4 8.7
2017-Oct-14 20:29N 34°24' E 135°08'610.5
2017-Oct-14 19:56N 34°20' E 135°03'510.4
2017-Oct-14 19:26N 34°16' E 134°59'512.2
2017-Oct-14 19:00N 34°11' E 134°60'712.8
2017-Oct-14 18:28N 34°04' E 135°00'4 0.1
2017-Oct-13 07:51N 33°59' E 135°01'512.8
2017-Oct-13 07:27N 34°05' E 135°00'512.4
2017-Oct-13 07:00N 34°10' E 134°60'611.8
2017-Oct-13 06:30N 34°16' E 134°59'1510.7
2017-Oct-13 05:07N 34°27' E 135°11'212.4
2017-Oct-13 04:55N 34°28' E 135°13'512.8
2017-Oct-13 04:30N 34°31' E 135°19'611.3
2017-Oct-13 04:00N 34°33' E 135°25'1 0.2
2017-Oct-13 00:41N 34°32' E 135°25'1 4.0
2017-Oct-13 00:27N 34°33' E 135°25'511.0
2017-Oct-13 00:00N 34°36' E 135°20'4 8.6
2017-Oct-12 23:30N 34°40' E 135°22'0 0.1
2017-Oct-12 23:00N 34°40' E 135°22'0 0.1
2017-Oct-12 22:29N 34°40' E 135°22'0 0.0
2017-Oct-12 22:00N 34°40' E 135°22'0 0.1
2017-Oct-12 21:30N 34°40' E 135°22'0 0.1
2017-Oct-12 21:00N 34°40' E 135°22'0 0.0
2017-Oct-12 20:30N 34°40' E 135°22'0 0.0
2017-Oct-12 20:00N 34°40' E 135°22'0 0.0
2017-Oct-12 19:30N 34°40' E 135°22'0 0.0
2017-Oct-12 19:00N 34°40' E 135°22'0 0.0
2017-Oct-12 18:30N 34°40' E 135°22'0 0.0
2017-Oct-12 18:00N 34°40' E 135°22'0 0.0
2017-Oct-12 17:30N 34°40' E 135°22'0 0.0
2017-Oct-12 17:00N 34°40' E 135°22'0 0.0
2017-Oct-12 16:30N 34°40' E 135°22'0 0.0
2017-Oct-12 16:00N 34°40' E 135°22'0 0.0
2017-Oct-12 15:30N 34°40' E 135°22'0 0.0
2017-Oct-12 15:00N 34°40' E 135°22'0 0.0
2017-Oct-12 14:30N 34°40' E 135°22'0 0.0
2017-Oct-12 14:00N 34°40' E 135°22'0 0.0
2017-Oct-12 13:30N 34°40' E 135°22'0 0.0
2017-Oct-12 13:00N 34°40' E 135°22'0 0.0
2017-Oct-12 12:30N 34°40' E 135°22'0 0.0
2017-Oct-12 12:00N 34°40' E 135°22'0 0.0
2017-Oct-12 11:30N 34°40' E 135°22'0 0.0
2017-Oct-12 11:00N 34°40' E 135°22'0 0.0
2017-Oct-12 10:30N 34°40' E 135°22'0 0.0
2017-Oct-12 10:00N 34°40' E 135°22'0 0.0
2017-Oct-12 09:30N 34°40' E 135°22'0 0.0
2017-Oct-12 09:00N 34°40' E 135°22'0 0.0
2017-Oct-12 08:30N 34°40' E 135°22'0 0.0
2017-Oct-12 08:00N 34°40' E 135°22'0 0.0
2017-Oct-12 07:30N 34°40' E 135°22'0 0.0
2017-Oct-12 07:00N 34°40' E 135°22'0 0.0
2017-Oct-12 06:30N 34°40' E 135°22'0 0.0
2017-Oct-12 06:00N 34°40' E 135°22'0 0.0
2017-Oct-12 05:30N 34°40' E 135°22'0 0.0
2017-Oct-12 05:00N 34°40' E 135°22'0 0.0
2017-Oct-12 04:30N 34°40' E 135°22'0 0.0
2017-Oct-12 03:58N 34°40' E 135°22'0 0.0
2017-Oct-12 03:30N 34°40' E 135°22'0 0.0
2017-Oct-12 03:00N 34°40' E 135°22'0 0.0
2017-Oct-12 02:30N 34°40' E 135°22'0 0.0
2017-Oct-12 02:00N 34°40' E 135°22'0 0.0
2017-Oct-12 01:30N 34°40' E 135°22'0 0.0
2017-Oct-12 01:00N 34°40' E 135°22'0 0.0
2017-Oct-12 00:30N 34°40' E 135°22'0 0.0
2017-Oct-12 00:00N 34°40' E 135°22'0 0.0
2017-Oct-11 23:30N 34°40' E 135°22'0 0.0
2017-Oct-11 23:00N 34°40' E 135°22'0 0.0
2017-Oct-11 22:30N 34°40' E 135°22'0 0.0
2017-Oct-11 22:00N 34°40' E 135°22'0 0.0
2017-Oct-11 21:30N 34°40' E 135°22'0 0.0
2017-Oct-11 21:00N 34°40' E 135°22'0 0.0
2017-Oct-11 20:30N 34°40' E 135°22'0 0.0
2017-Oct-11 19:59N 34°40' E 135°22'0 0.0
2017-Oct-11 19:30N 34°40' E 135°22'0 0.0
2017-Oct-11 19:00N 34°40' E 135°22'0 0.1
2017-Oct-11 18:30N 34°40' E 135°22'0 0.0
2017-Oct-11 18:00N 34°40' E 135°22'0 0.1
2017-Oct-11 17:30N 34°40' E 135°22'0 0.0
2017-Oct-11 17:00N 34°40' E 135°22'0 0.0
2017-Oct-11 00:00N 34°40' E 135°22'0 0.0
2017-Oct-10 23:30N 34°40' E 135°22'0 0.0
2017-Oct-10 23:00N 34°40' E 135°22'0 0.0
2017-Oct-10 22:30N 34°40' E 135°22'0 0.1
2017-Oct-10 22:00N 34°40' E 135°22'0 0.0
2017-Oct-10 21:30N 34°40' E 135°22'0 0.0
2017-Oct-10 21:00N 34°40' E 135°22'0 0.0
2017-Oct-10 20:30N 34°40' E 135°22'0 0.0
2017-Oct-10 20:00N 34°40' E 135°22'0 0.1
2017-Oct-10 19:30N 34°40' E 135°22'0 0.0
2017-Oct-10 19:00N 34°40' E 135°22'0 0.0
2017-Oct-10 18:30N 34°40' E 135°22'0 0.1
2017-Oct-10 18:00N 34°40' E 135°22'0 0.0
2017-Oct-10 17:30N 34°40' E 135°22'0 0.0
2017-Oct-10 17:00N 34°40' E 135°22'0 0.0
2017-Oct-10 16:30N 34°40' E 135°22'0 0.0
2017-Oct-10 16:00N 34°40' E 135°22'0 0.0
2017-Oct-10 15:30N 34°40' E 135°22'0 0.0
2017-Oct-10 15:00N 34°40' E 135°22'0 0.0
2017-Oct-10 14:00N 34°40' E 135°22'0 0.0
2017-Oct-10 13:30N 34°40' E 135°22'0 0.0
2017-Oct-10 13:00N 34°40' E 135°22'  
Track history (hours):
 
Tides and Currents Weather Stations Pressure Air Temp Water Temp Dewpoint Dewpoint Depression Visibility Wind Speed Wind Dir Waves Ship Positions

Tokuyo Maru No.17

Last reported at 2017-Oct-20 12:31 UTC. Time now 2017-Oct-20 12:42 UTC.
Position N 34°31' E 135°20'.

Length 67 m; draft 4.7 m.

Type: Tanker. MMSI: 431009496.

Date/timePositionNaut miles runAvg speedWind from/ knotsBaromVisibWave heightAir tempDewpointWater temp
2017-Oct-20 12:31N 34°31' E 135°20'0 0.0
2017-Oct-20 12:00N 34°31' E 135°20'0 0.0
2017-Oct-20 11:31N 34°31' E 135°20'0 0.0
2017-Oct-20 11:00N 34°31' E 135°20'0 0.1
2017-Oct-20 10:29N 34°31' E 135°20'4 8.1
2017-Oct-20 09:59N 34°33' E 135°25'0 0.2
2017-Oct-20 09:18N 34°32' E 135°25'0 0.0
2017-Oct-20 07:57N 34°32' E 135°25'0 0.0
2017-Oct-20 07:29N 34°32' E 135°25'0 0.0
2017-Oct-20 07:00N 34°32' E 135°25'0 0.0
2017-Oct-20 06:31N 34°32' E 135°25'0 0.0
2017-Oct-20 04:48N 34°32' E 135°25'1 3.6
2017-Oct-20 04:30N 34°33' E 135°25'611.6
2017-Oct-20 04:00N 34°31' E 135°18'612.0
2017-Oct-20 03:30N 34°27' E 135°12'811.6
2017-Oct-20 02:51N 34°22' E 135°05'810.9
2017-Oct-20 02:06N 34°16' E 134°59'112.2
2017-Oct-20 02:00N 34°15' E 134°59'612.5
2017-Oct-20 01:30N 34°09' E 134°60'  
2017-Oct-15 08:15N 34°36' E 134°55'514.8
2017-Oct-15 07:54N 34°37' E 135°01'614.4
2017-Oct-15 07:30N 34°35' E 135°08'713.2
2017-Oct-15 07:00N 34°34' E 135°16'713.2
2017-Oct-15 06:29N 34°33' E 135°24'2 0.9
2017-Oct-15 04:44N 34°32' E 135°25'0 1.1
2017-Oct-15 04:29N 34°33' E 135°25'1 1.7
2017-Oct-15 04:00N 34°33' E 135°25'2 3.6
2017-Oct-15 03:24N 34°33' E 135°22'0 0.0
2017-Oct-15 03:00N 34°33' E 135°22'0 0.0
2017-Oct-15 02:21N 34°33' E 135°22'0 0.0
2017-Oct-15 01:57N 34°33' E 135°22'0 0.1
2017-Oct-15 01:30N 34°33' E 135°22'0 0.0
2017-Oct-15 00:13N 34°33' E 135°22'0 0.0
2017-Oct-14 23:56N 34°33' E 135°22'0 0.0
2017-Oct-14 23:30N 34°33' E 135°22'0 0.0
2017-Oct-14 23:00N 34°33' E 135°22'0 0.0
2017-Oct-14 22:30N 34°33' E 135°22'0 0.0
2017-Oct-14 22:00N 34°33' E 135°22'510.2
2017-Oct-14 21:30N 34°30' E 135°17'510.1
2017-Oct-14 21:00N 34°27' E 135°12'4 8.7
2017-Oct-14 20:29N 34°24' E 135°08'610.5
2017-Oct-14 19:56N 34°20' E 135°03'510.4
2017-Oct-14 19:26N 34°16' E 134°59'512.2
2017-Oct-14 19:00N 34°11' E 134°60'712.8
2017-Oct-14 18:28N 34°04' E 135°00'4 0.1
2017-Oct-13 07:51N 33°59' E 135°01'512.8
2017-Oct-13 07:27N 34°05' E 135°00'512.4
2017-Oct-13 07:00N 34°10' E 134°60'611.8
2017-Oct-13 06:30N 34°16' E 134°59'1510.7
2017-Oct-13 05:07N 34°27' E 135°11'212.4
2017-Oct-13 04:55N 34°28' E 135°13'512.8
2017-Oct-13 04:30N 34°31' E 135°19'611.3
2017-Oct-13 04:00N 34°33' E 135°25'1 0.2
2017-Oct-13 00:41N 34°32' E 135°25'1 4.0
2017-Oct-13 00:27N 34°33' E 135°25'511.0
2017-Oct-13 00:00N 34°36' E 135°20'4 8.6
2017-Oct-12 23:30N 34°40' E 135°22'0 0.1
2017-Oct-12 23:00N 34°40' E 135°22'0 0.1
2017-Oct-12 22:29N 34°40' E 135°22'0 0.0
2017-Oct-12 22:00N 34°40' E 135°22'0 0.1
2017-Oct-12 21:30N 34°40' E 135°22'0 0.1
2017-Oct-12 21:00N 34°40' E 135°22'0 0.0
2017-Oct-12 20:30N 34°40' E 135°22'0 0.0
2017-Oct-12 20:00N 34°40' E 135°22'0 0.0
2017-Oct-12 19:30N 34°40' E 135°22'0 0.0
2017-Oct-12 19:00N 34°40' E 135°22'0 0.0
2017-Oct-12 18:30N 34°40' E 135°22'0 0.0
2017-Oct-12 18:00N 34°40' E 135°22'0 0.0
2017-Oct-12 17:30N 34°40' E 135°22'0 0.0
2017-Oct-12 17:00N 34°40' E 135°22'0 0.0
2017-Oct-12 16:30N 34°40' E 135°22'0 0.0
2017-Oct-12 16:00N 34°40' E 135°22'0 0.0
2017-Oct-12 15:30N 34°40' E 135°22'0 0.0
2017-Oct-12 15:00N 34°40' E 135°22'0 0.0
2017-Oct-12 14:30N 34°40' E 135°22'0 0.0
2017-Oct-12 14:00N 34°40' E 135°22'0 0.0
2017-Oct-12 13:30N 34°40' E 135°22'0 0.0
2017-Oct-12 13:00N 34°40' E 135°22'0 0.0
2017-Oct-12 12:30N 34°40' E 135°22'0 0.0
2017-Oct-12 12:00N 34°40' E 135°22'0 0.0
2017-Oct-12 11:30N 34°40' E 135°22'0 0.0
2017-Oct-12 11:00N 34°40' E 135°22'0 0.0
2017-Oct-12 10:30N 34°40' E 135°22'0 0.0
2017-Oct-12 10:00N 34°40' E 135°22'0 0.0
2017-Oct-12 09:30N 34°40' E 135°22'0 0.0
2017-Oct-12 09:00N 34°40' E 135°22'0 0.0
2017-Oct-12 08:30N 34°40' E 135°22'0 0.0
2017-Oct-12 08:00N 34°40' E 135°22'0 0.0
2017-Oct-12 07:30N 34°40' E 135°22'0 0.0
2017-Oct-12 07:00N 34°40' E 135°22'0 0.0
2017-Oct-12 06:30N 34°40' E 135°22'0 0.0
2017-Oct-12 06:00N 34°40' E 135°22'0 0.0
2017-Oct-12 05:30N 34°40' E 135°22'0 0.0
2017-Oct-12 05:00N 34°40' E 135°22'0 0.0
2017-Oct-12 04:30N 34°40' E 135°22'0 0.0
2017-Oct-12 03:58N 34°40' E 135°22'0 0.0
2017-Oct-12 03:30N 34°40' E 135°22'0 0.0
2017-Oct-12 03:00N 34°40' E 135°22'0 0.0
2017-Oct-12 02:30N 34°40' E 135°22'0 0.0
2017-Oct-12 02:00N 34°40' E 135°22'0 0.0
2017-Oct-12 01:30N 34°40' E 135°22'0 0.0
2017-Oct-12 01:00N 34°40' E 135°22'0 0.0
2017-Oct-12 00:30N 34°40' E 135°22'0 0.0
2017-Oct-12 00:00N 34°40' E 135°22'0 0.0
2017-Oct-11 23:30N 34°40' E 135°22'0 0.0
2017-Oct-11 23:00N 34°40' E 135°22'0 0.0
2017-Oct-11 22:30N 34°40' E 135°22'0 0.0
2017-Oct-11 22:00N 34°40' E 135°22'0 0.0
2017-Oct-11 21:30N 34°40' E 135°22'0 0.0
2017-Oct-11 21:00N 34°40' E 135°22'0 0.0
2017-Oct-11 20:30N 34°40' E 135°22'0 0.0
2017-Oct-11 19:59N 34°40' E 135°22'0 0.0
2017-Oct-11 19:30N 34°40' E 135°22'0 0.0
2017-Oct-11 19:00N 34°40' E 135°22'0 0.1
2017-Oct-11 18:30N 34°40' E 135°22'0 0.0
2017-Oct-11 18:00N 34°40' E 135°22'0 0.1
2017-Oct-11 17:30N 34°40' E 135°22'0 0.0
2017-Oct-11 17:00N 34°40' E 135°22'0 0.0
2017-Oct-11 00:00N 34°40' E 135°22'0 0.0
2017-Oct-10 23:30N 34°40' E 135°22'0 0.0
2017-Oct-10 23:00N 34°40' E 135°22'0 0.0
2017-Oct-10 22:30N 34°40' E 135°22'0 0.1
2017-Oct-10 22:00N 34°40' E 135°22'0 0.0
2017-Oct-10 21:30N 34°40' E 135°22'0 0.0
2017-Oct-10 21:00N 34°40' E 135°22'0 0.0
2017-Oct-10 20:30N 34°40' E 135°22'0 0.0
2017-Oct-10 20:00N 34°40' E 135°22'0 0.1
2017-Oct-10 19:30N 34°40' E 135°22'0 0.0
2017-Oct-10 19:00N 34°40' E 135°22'0 0.0
2017-Oct-10 18:30N 34°40' E 135°22'0 0.1
2017-Oct-10 18:00N 34°40' E 135°22'0 0.0
2017-Oct-10 17:30N 34°40' E 135°22'0 0.0
2017-Oct-10 17:00N 34°40' E 135°22'0 0.0
2017-Oct-10 16:30N 34°40' E 135°22'0 0.0
2017-Oct-10 16:00N 34°40' E 135°22'0 0.0
2017-Oct-10 15:30N 34°40' E 135°22'0 0.0
2017-Oct-10 15:00N 34°40' E 135°22'0 0.0
2017-Oct-10 14:00N 34°40' E 135°22'0 0.0
2017-Oct-10 13:30N 34°40' E 135°22'0 0.0
2017-Oct-10 13:00N 34°40' E 135°22'  

Dump ship's entire track history